Time;durP1;ratioP1;P1;durP2;ratioP2;P2;SDS_P1;SDS_P2;PMS_P1;PMS_P2;Temp;Humidity;BMP_temperature;BMP_pressure;BME280_temperature;BME280_humidity;BME280_pressure;Samples;Min_cycle;Max_cycle;Signal;HPM_P1;HPM_P2
2023/09/01 00:02:06;;;;;;;9.32;5.28;;;;;;;;;;5073013;28;20055;-79
2023/09/01 00:04:45;;;;;;;8.00;5.32;;;;;;;;;;5091166;28;20024;-78
2023/09/01 00:07:10;;;;;;;8.48;5.35;;;;;;;;;;5091288;28;20430;-78
2023/09/01 00:09:36;;;;;;;8.75;4.90;;;;;;;;;;5090552;28;20020;-78
2023/09/01 00:12:02;;;;;;;8.15;5.32;;;;;;;;;;5091930;28;20032;-79
2023/09/01 00:14:27;;;;;;;9.10;4.95;;;;;;;;;;5091320;28;20886;-78
2023/09/01 00:16:53;;;;;;;9.50;5.65;;;;;;;;;;5091388;28;20040;-78
2023/09/01 00:19:18;;;;;;;14.88;5.05;;;;;;;;;;5072990;28;20418;-78
2023/09/01 00:21:44;;;;;;;12.40;5.25;;;;;;;;;;5089749;28;20040;-78
2023/09/01 00:24:11;;;;;;;10.18;4.90;;;;;;;;;;5090853;28;20031;-78
2023/09/01 00:26:36;;;;;;;9.45;4.90;;;;;;;;;;5089545;28;20454;-78
2023/09/01 00:29:02;;;;;;;8.98;5.13;;;;;;;;;;5081229;28;20035;-78
2023/09/01 00:31:27;;;;;;;11.88;4.80;;;;;;;;;;5089097;28;20032;-78
2023/09/01 00:33:53;;;;;;;6.07;4.72;;;;;;;;;;5089453;28;20020;-78
2023/09/01 00:36:18;;;;;;;10.40;4.82;;;;;;;;;;5090442;28;20036;-78
2023/09/01 00:38:43;;;;;;;12.07;5.00;;;;;;;;;;5089888;28;20054;-77
2023/09/01 00:41:09;;;;;;;8.07;5.25;;;;;;;;;;5090395;28;20036;-78
2023/09/01 00:43:34;;;;;;;9.10;5.20;;;;;;;;;;5072696;28;20471;-77
2023/09/01 00:46:00;;;;;;;9.43;5.57;;;;;;;;;;5090172;28;20035;-78
2023/09/01 00:48:25;;;;;;;11.65;5.20;;;;;;;;;;5089614;28;20028;-78
2023/09/01 00:50:51;;;;;;;11.43;5.35;;;;;;;;;;5093470;28;20039;-78
2023/09/01 00:53:20;;;;;;;8.95;5.20;;;;;;;;;;5095114;28;20020;-78
2023/09/01 00:55:46;;;;;;;10.95;5.35;;;;;;;;;;5094708;28;20101;-78
2023/09/01 00:58:12;;;;;;;9.63;4.97;;;;;;;;;;5094896;28;20771;-78
2023/09/01 01:00:39;;;;;;;8.93;5.28;;;;;;;;;;5094280;28;20089;-79
2023/09/01 01:03:05;;;;;;;11.90;5.07;;;;;;;;;;5093022;28;20043;-79
2023/09/01 01:05:43;;;;;;;10.93;5.90;;;;;;;;;;5076583;28;20032;-78
2023/09/01 01:08:21;;;;;;;7.70;5.00;;;;;;;;;;5093095;28;20059;-78
2023/09/01 01:10:50;;;;;;;8.98;5.22;;;;;;;;;;5094395;28;20406;-79
2023/09/01 01:13:15;;;;;;;9.05;5.05;;;;;;;;;;5076656;28;20024;-79
2023/09/01 01:15:42;;;;;;;10.55;5.38;;;;;;;;;;5059643;28;20024;-78
2023/09/01 01:18:11;;;;;;;9.27;5.03;;;;;;;;;;5076069;28;20195;-78
2023/09/01 01:20:37;;;;;;;8.88;4.95;;;;;;;;;;5094507;28;20063;-78
2023/09/01 01:23:09;;;;;;;9.02;5.07;;;;;;;;;;5073844;28;20052;-78
2023/09/01 01:25:35;;;;;;;10.40;4.88;;;;;;;;;;5092317;28;20052;-78
2023/09/01 01:28:07;;;;;;;9.80;5.30;;;;;;;;;;5092561;28;20119;-78
2023/09/01 01:30:33;;;;;;;9.75;4.72;;;;;;;;;;5092886;28;20127;-78
2023/09/01 01:32:58;;;;;;;7.43;5.32;;;;;;;;;;5074049;28;20111;-79
2023/09/01 01:35:44;;;;;;;8.90;4.78;;;;;;;;;;5073025;28;20123;-78
2023/09/01 01:38:10;;;;;;;7.20;4.95;;;;;;;;;;5092218;28;20040;-78
2023/09/01 01:40:35;;;;;;;8.70;4.70;;;;;;;;;;5092878;28;20108;-78
2023/09/01 01:43:02;;;;;;;11.23;5.18;;;;;;;;;;5076581;28;20032;-79
2023/09/01 01:45:27;;;;;;;12.10;4.90;;;;;;;;;;5092425;28;20022;-79
2023/09/01 01:47:53;;;;;;;7.78;4.65;;;;;;;;;;5092650;28;20390;-79
2023/09/01 01:50:19;;;;;;;9.02;4.78;;;;;;;;;;5058670;28;20131;-79
2023/09/01 01:52:44;;;;;;;7.05;4.82;;;;;;;;;;5093971;28;20115;-77
2023/09/01 01:55:10;;;;;;;8.77;5.10;;;;;;;;;;5093591;28;20024;-77
2023/09/01 01:57:38;;;;;;;8.48;4.82;;;;;;;;;;5093190;28;20122;-78
2023/09/01 02:00:11;;;;;;;8.52;4.70;;;;;;;;;;5092058;28;20106;-78
2023/09/01 02:02:38;;;;;;;10.18;5.10;;;;;;;;;;5092839;28;20040;-78
2023/09/01 02:05:06;;;;;;;10.93;5.03;;;;;;;;;;5092777;28;20044;-78
2023/09/01 02:07:32;;;;;;;11.27;4.85;;;;;;;;;;5092995;28;20047;-78
2023/09/01 02:09:57;;;;;;;8.68;4.75;;;;;;;;;;5091865;28;20020;-79
2023/09/01 02:12:23;;;;;;;10.88;4.72;;;;;;;;;;5093441;28;20510;-80
2023/09/01 02:14:48;;;;;;;8.25;5.07;;;;;;;;;;5093263;28;20024;-78
2023/09/01 02:17:14;;;;;;;7.03;4.43;;;;;;;;;;5093990;28;20047;-78
2023/09/01 02:19:41;;;;;;;10.90;4.82;;;;;;;;;;5077674;28;20028;-80
2023/09/01 02:22:06;;;;;;;9.73;4.90;;;;;;;;;;5093217;28;20448;-78
2023/09/01 02:24:32;;;;;;;8.40;4.93;;;;;;;;;;5074654;28;20024;-79
2023/09/01 02:26:58;;;;;;;6.80;5.38;;;;;;;;;;5092078;28;20095;-76
2023/09/01 02:29:23;;;;;;;9.85;4.80;;;;;;;;;;5058055;28;20063;-79
2023/09/01 02:31:49;;;;;;;9.65;5.13;;;;;;;;;;5095119;28;20083;-78
2023/09/01 02:34:14;;;;;;;12.70;4.95;;;;;;;;;;5058201;28;20523;-78
2023/09/01 02:36:40;;;;;;;11.50;4.82;;;;;;;;;;5091855;28;20114;-78
2023/09/01 02:39:06;;;;;;;7.88;4.47;;;;;;;;;;5091231;28;20035;-78
2023/09/01 02:41:32;;;;;;;8.85;4.40;;;;;;;;;;5075159;28;20047;-77
2023/09/01 02:43:57;;;;;;;8.75;4.93;;;;;;;;;;5074802;28;20028;-78
2023/09/01 02:46:23;;;;;;;7.40;4.90;;;;;;;;;;5077091;28;20064;-78
2023/09/01 02:48:48;;;;;;;13.27;5.13;;;;;;;;;;5101358;28;20109;-78
2023/09/01 02:51:14;;;;;;;12.43;5.03;;;;;;;;;;5091407;28;20035;-78
2023/09/01 02:53:39;;;;;;;7.82;4.28;;;;;;;;;;5074030;28;20016;-78
2023/09/01 02:56:05;;;;;;;5.55;4.43;;;;;;;;;;5091394;28;20119;-78
2023/09/01 02:58:31;;;;;;;7.22;5.03;;;;;;;;;;5092619;28;20032;-78
2023/09/01 03:00:56;;;;;;;10.30;4.57;;;;;;;;;;5091785;28;20040;-77
2023/09/01 03:03:22;;;;;;;10.38;4.82;;;;;;;;;;5083097;28;20016;-77
2023/09/01 03:05:49;;;;;;;8.90;4.47;;;;;;;;;;5100660;28;20036;-78
2023/09/01 03:08:14;;;;;;;10.65;5.70;;;;;;;;;;5070951;28;20455;-78
2023/09/01 03:10:40;;;;;;;9.75;4.70;;;;;;;;;;5073257;28;20062;-79
2023/09/01 03:13:06;;;;;;;9.35;4.55;;;;;;;;;;5089807;28;20023;-78
2023/09/01 03:15:32;;;;;;;12.63;5.15;;;;;;;;;;5090842;28;20384;-78
2023/09/01 03:17:57;;;;;;;9.85;5.03;;;;;;;;;;5058227;28;20024;-78
2023/09/01 03:20:23;;;;;;;13.77;5.22;;;;;;;;;;5092012;28;20122;-78
2023/09/01 03:22:49;;;;;;;8.60;5.15;;;;;;;;;;5090695;28;20020;-78
2023/09/01 03:25:14;;;;;;;10.63;5.15;;;;;;;;;;5091313;28;20059;-78
2023/09/01 03:27:40;;;;;;;13.73;5.10;;;;;;;;;;5090510;28;20119;-78
2023/09/01 03:30:07;;;;;;;10.77;4.75;;;;;;;;;;5096592;28;20043;-78
2023/09/01 03:32:37;;;;;;;7.88;5.18;;;;;;;;;;5090249;28;20114;-78
2023/09/01 03:35:03;;;;;;;14.57;5.57;;;;;;;;;;5073788;28;20036;-79
2023/09/01 03:37:28;;;;;;;12.25;4.72;;;;;;;;;;5090432;28;20026;-78
2023/09/01 03:39:54;;;;;;;10.32;4.72;;;;;;;;;;5089507;28;20051;-78
2023/09/01 03:42:19;;;;;;;11.88;5.50;;;;;;;;;;5090538;28;20092;-78
2023/09/01 03:44:45;;;;;;;9.63;4.82;;;;;;;;;;5073552;28;20066;-78
2023/09/01 03:47:12;;;;;;;11.45;4.53;;;;;;;;;;5073022;28;20047;-78
2023/09/01 03:49:37;;;;;;;15.35;5.13;;;;;;;;;;5070194;28;20032;-78
2023/09/01 03:52:03;;;;;;;7.82;5.10;;;;;;;;;;5085531;28;20031;-78
2023/09/01 03:54:28;;;;;;;7.30;4.70;;;;;;;;;;5079720;28;20058;-78
2023/09/01 03:56:54;;;;;;;11.52;4.88;;;;;;;;;;5086010;28;20402;-77
2023/09/01 03:59:19;;;;;;;7.85;4.60;;;;;;;;;;5095877;28;20036;-78
2023/09/01 04:01:45;;;;;;;10.43;5.00;;;;;;;;;;5082555;28;20059;-78
2023/09/01 04:04:11;;;;;;;18.90;5.25;;;;;;;;;;5089911;28;20505;-78
2023/09/01 04:06:37;;;;;;;17.98;6.18;;;;;;;;;;5070737;28;20024;-78
2023/09/01 04:09:03;;;;;;;10.43;5.30;;;;;;;;;;5056458;28;20130;-78
2023/09/01 04:11:30;;;;;;;10.32;4.63;;;;;;;;;;5091139;28;20027;-78
2023/09/01 04:13:55;;;;;;;9.85;5.07;;;;;;;;;;5090420;28;20040;-77
2023/09/01 04:16:22;;;;;;;8.95;4.50;;;;;;;;;;5077093;28;20027;-77
2023/09/01 04:18:47;;;;;;;9.07;4.80;;;;;;;;;;5090689;28;20135;-77
2023/09/01 04:21:13;;;;;;;8.35;4.93;;;;;;;;;;5056504;28;20116;-77
2023/09/01 04:23:40;;;;;;;12.05;4.63;;;;;;;;;;5088610;28;20033;-77
2023/09/01 04:26:06;;;;;;;9.38;4.60;;;;;;;;;;5069461;28;20430;-78
2023/09/01 04:28:31;;;;;;;10.55;5.05;;;;;;;;;;5088030;28;20118;-79
2023/09/01 04:31:00;;;;;;;10.50;5.25;;;;;;;;;;5089816;28;20030;-78
2023/09/01 04:33:26;;;;;;;9.32;5.00;;;;;;;;;;5069512;28;20044;-78
2023/09/01 04:35:57;;;;;;;11.77;5.60;;;;;;;;;;5068685;28;20491;-79
2023/09/01 04:38:23;;;;;;;9.82;4.97;;;;;;;;;;5069794;28;20123;-79
2023/09/01 04:40:55;;;;;;;11.32;4.90;;;;;;;;;;5070726;28;20147;-79
2023/09/01 04:43:21;;;;;;;10.07;5.85;;;;;;;;;;5091013;28;20024;-79
2023/09/01 04:45:47;;;;;;;11.38;5.03;;;;;;;;;;5073173;28;20119;-79
2023/09/01 04:48:13;;;;;;;9.07;5.90;;;;;;;;;;5072662;28;20398;-79
2023/09/01 04:50:39;;;;;;;9.95;4.95;;;;;;;;;;5089780;28;20107;-79
2023/09/01 04:53:04;;;;;;;10.90;5.03;;;;;;;;;;5090942;28;20027;-79
2023/09/01 04:55:30;;;;;;;19.70;13.82;;;;;;;;;;5088134;28;20035;-78
2023/09/01 04:57:55;;;;;;;11.75;6.10;;;;;;;;;;5083900;28;20032;-78
2023/09/01 05:00:21;;;;;;;11.50;4.78;;;;;;;;;;5089000;28;20213;-79
2023/09/01 05:02:47;;;;;;;9.63;4.70;;;;;;;;;;5072159;28;20047;-79
2023/09/01 05:05:12;;;;;;;10.43;5.28;;;;;;;;;;5089031;28;20069;-78
2023/09/01 05:07:38;;;;;;;14.50;6.47;;;;;;;;;;5088847;28;20501;-78
2023/09/01 05:10:04;;;;;;;12.23;5.20;;;;;;;;;;5088534;28;20057;-78
2023/09/01 05:12:29;;;;;;;13.38;5.22;;;;;;;;;;5072385;28;20032;-78
2023/09/01 05:14:55;;;;;;;9.43;5.03;;;;;;;;;;5070886;28;20028;-78
2023/09/01 05:17:20;;;;;;;7.68;4.60;;;;;;;;;;5063008;28;20158;-78
2023/09/01 05:19:46;;;;;;;11.60;4.53;;;;;;;;;;5103738;28;20028;-80
2023/09/01 05:22:11;;;;;;;13.00;4.68;;;;;;;;;;5086626;28;20028;-80
2023/09/01 05:24:39;;;;;;;25.85;8.05;;;;;;;;;;5088654;28;20066;-79
2023/09/01 05:27:04;;;;;;;15.93;6.00;;;;;;;;;;5088801;28;20036;-79
2023/09/01 05:29:30;;;;;;;12.75;5.45;;;;;;;;;;5079485;28;20518;-79
2023/09/01 05:31:56;;;;;;;11.35;5.05;;;;;;;;;;5090656;28;20043;-79
2023/09/01 05:34:21;;;;;;;9.82;5.10;;;;;;;;;;5088574;28;20368;-79
2023/09/01 05:36:47;;;;;;;11.90;5.40;;;;;;;;;;5072978;28;20024;-79
2023/09/01 05:39:13;;;;;;;10.95;4.68;;;;;;;;;;5091909;28;20024;-79
2023/09/01 05:41:38;;;;;;;9.25;4.82;;;;;;;;;;5092233;28;20064;-79
2023/09/01 05:44:04;;;;;;;12.73;5.68;;;;;;;;;;5071722;28;20536;-80
2023/09/01 05:46:30;;;;;;;11.25;5.40;;;;;;;;;;5083781;28;20028;-80
2023/09/01 05:48:56;;;;;;;18.95;5.78;;;;;;;;;;5091719;28;20119;-80
2023/09/01 05:51:22;;;;;;;13.13;5.53;;;;;;;;;;5071759;28;20131;-79
2023/09/01 05:53:48;;;;;;;14.27;5.47;;;;;;;;;;5091498;28;20082;-80
2023/09/01 05:56:13;;;;;;;13.50;5.03;;;;;;;;;;5072648;28;20040;-80
2023/09/01 05:58:39;;;;;;;12.93;6.50;;;;;;;;;;5089885;28;20064;-79
2023/09/01 06:01:04;;;;;;;9.40;5.47;;;;;;;;;;5093183;28;20047;-80
2023/09/01 06:03:30;;;;;;;11.60;5.80;;;;;;;;;;5093389;28;20024;-81
2023/09/01 06:05:55;;;;;;;21.75;6.15;;;;;;;;;;5075071;28;20035;-81
2023/09/01 06:08:21;;;;;;;10.57;5.50;;;;;;;;;;5092498;28;20028;-80
2023/09/01 06:10:46;;;;;;;9.43;4.68;;;;;;;;;;5093317;28;20028;-79
2023/09/01 06:13:12;;;;;;;9.32;4.80;;;;;;;;;;5092389;28;20360;-79
2023/09/01 06:15:37;;;;;;;8.65;4.13;;;;;;;;;;5092090;28;20047;-78
2023/09/01 06:18:03;;;;;;;15.50;7.20;;;;;;;;;;5088743;28;20486;-79
2023/09/01 06:20:28;;;;;;;8.48;4.45;;;;;;;;;;5075730;28;20483;-80
2023/09/01 06:22:54;;;;;;;10.32;4.43;;;;;;;;;;5092239;28;20033;-79
2023/09/01 06:25:20;;;;;;;8.90;3.97;;;;;;;;;;5092438;28;20048;-79
2023/09/01 06:27:46;;;;;;;12.48;4.55;;;;;;;;;;5091241;28;20028;-79
2023/09/01 06:30:11;;;;;;;7.25;4.10;;;;;;;;;;5092127;28;20402;-79
2023/09/01 06:32:37;;;;;;;13.63;4.70;;;;;;;;;;5092766;28;20024;-80
2023/09/01 06:35:02;;;;;;;9.10;4.18;;;;;;;;;;5091267;28;20039;-79
2023/09/01 06:37:28;;;;;;;11.20;4.50;;;;;;;;;;5093224;28;20020;-79
2023/09/01 06:39:53;;;;;;;9.10;4.50;;;;;;;;;;5092062;28;20544;-79
2023/09/01 06:42:19;;;;;;;8.90;4.38;;;;;;;;;;5091203;28;20406;-79
2023/09/01 06:44:44;;;;;;;12.05;6.15;;;;;;;;;;5091274;28;20372;-79
2023/09/01 06:47:10;;;;;;;9.02;3.97;;;;;;;;;;5102492;28;20047;-80
2023/09/01 06:49:35;;;;;;;11.90;4.80;;;;;;;;;;5091949;28;20028;-80
2023/09/01 06:52:01;;;;;;;13.18;4.25;;;;;;;;;;5090794;28;20491;-80
2023/09/01 06:54:26;;;;;;;7.07;3.75;;;;;;;;;;5090924;28;20145;-80
2023/09/01 06:56:52;;;;;;;6.72;3.60;;;;;;;;;;5092112;28;20016;-80
2023/09/01 06:59:17;;;;;;;6.75;3.83;;;;;;;;;;5091221;28;20382;-80
2023/09/01 07:01:42;;;;;;;7.93;3.90;;;;;;;;;;5091701;28;20086;-80
2023/09/01 07:04:32;;;;;;;6.93;3.40;;;;;;;;;;5091926;28;20077;-80
2023/09/01 07:06:58;;;;;;;10.10;3.70;;;;;;;;;;5092093;28;20416;-80
2023/09/01 07:09:23;;;;;;;8.07;4.20;;;;;;;;;;5092590;28;20024;-80
2023/09/01 07:11:49;;;;;;;9.32;3.92;;;;;;;;;;5091688;28;20043;-80
2023/09/01 07:14:14;;;;;;;5.82;3.78;;;;;;;;;;5091140;28;20059;-80
2023/09/01 07:16:40;;;;;;;33.67;4.43;;;;;;;;;;5091456;28;20039;-80
2023/09/01 07:19:05;;;;;;;7.32;3.58;;;;;;;;;;5091493;28;20038;-80
2023/09/01 07:21:31;;;;;;;7.63;3.55;;;;;;;;;;5090822;28;20043;-80
2023/09/01 07:23:56;;;;;;;8.40;3.20;;;;;;;;;;5073317;28;20020;-80
2023/09/01 07:26:21;;;;;;;12.13;4.43;;;;;;;;;;5056424;28;20186;-80
2023/09/01 07:28:47;;;;;;;5.07;3.22;;;;;;;;;;5092787;28;20522;-80
2023/09/01 07:31:12;;;;;;;8.95;3.63;;;;;;;;;;5090947;28;20118;-80
2023/09/01 07:33:41;;;;;;;10.23;3.58;;;;;;;;;;5090308;28;20032;-80
2023/09/01 07:36:10;;;;;;;7.55;3.70;;;;;;;;;;5089615;28;20046;-80
2023/09/01 07:38:36;;;;;;;11.40;3.63;;;;;;;;;;5090268;28;20445;-80
2023/09/01 07:41:03;;;;;;;8.82;3.40;;;;;;;;;;5083617;28;20028;-80
2023/09/01 07:43:28;;;;;;;12.10;3.17;;;;;;;;;;5091498;28;20093;-80
2023/09/01 07:45:54;;;;;;;5.50;2.90;;;;;;;;;;5090918;28;20024;-80
2023/09/01 07:48:19;;;;;;;10.25;2.95;;;;;;;;;;5091050;28;20107;-80
2023/09/01 07:50:46;;;;;;;8.80;3.22;;;;;;;;;;5089974;28;20082;-80
2023/09/01 07:53:11;;;;;;;5.40;2.70;;;;;;;;;;5091427;28;20027;-80
2023/09/01 07:55:37;;;;;;;8.77;3.17;;;;;;;;;;5088466;28;20091;-80
2023/09/01 07:58:02;;;;;;;9.00;2.70;;;;;;;;;;5091743;28;20031;-80
2023/09/01 08:00:28;;;;;;;6.40;3.08;;;;;;;;;;5089832;28;20118;-80
2023/09/01 08:02:53;;;;;;;4.93;2.80;;;;;;;;;;5052996;28;20028;-79
2023/09/01 08:05:19;;;;;;;9.98;3.25;;;;;;;;;;5091599;28;20487;-80
2023/09/01 08:07:46;;;;;;;11.27;2.92;;;;;;;;;;5090649;28;20024;-80
2023/09/01 08:10:12;;;;;;;7.25;2.63;;;;;;;;;;5071810;28;20040;-80
2023/09/01 08:12:37;;;;;;;6.85;2.63;;;;;;;;;;5087146;28;20093;-80
2023/09/01 08:15:03;;;;;;;5.88;2.63;;;;;;;;;;5090793;28;20077;-80
2023/09/01 08:17:28;;;;;;;4.97;2.70;;;;;;;;;;5069555;28;20025;-81
2023/09/01 08:19:54;;;;;;;8.52;2.83;;;;;;;;;;5089770;28;20046;-80
2023/09/01 08:22:19;;;;;;;9.95;3.13;;;;;;;;;;5090432;28;20032;-81
2023/09/01 08:24:45;;;;;;;7.50;2.72;;;;;;;;;;5090065;28;20060;-80
2023/09/01 08:27:11;;;;;;;10.00;2.72;;;;;;;;;;5089193;28;20071;-81
2023/09/01 08:29:38;;;;;;;6.40;2.33;;;;;;;;;;5089103;28;20019;-81
2023/09/01 08:32:04;;;;;;;7.57;2.83;;;;;;;;;;5091106;28;20020;-80
2023/09/01 08:34:29;;;;;;;6.32;2.33;;;;;;;;;;5090210;28;20039;-81
2023/09/01 08:36:55;;;;;;;6.93;2.72;;;;;;;;;;5089190;28;20486;-81
2023/09/01 08:39:20;;;;;;;7.43;2.35;;;;;;;;;;5088933;28;20586;-81
2023/09/01 08:41:45;;;;;;;7.25;2.20;;;;;;;;;;5090478;28;20035;-81
2023/09/01 08:44:11;;;;;;;7.30;2.33;;;;;;;;;;5089424;28;20115;-80
2023/09/01 08:46:37;;;;;;;5.10;2.50;;;;;;;;;;5089675;28;20400;-81
2023/09/01 08:49:02;;;;;;;5.80;2.22;;;;;;;;;;5089190;28;20060;-80
2023/09/01 08:51:28;;;;;;;8.68;2.30;;;;;;;;;;5089260;28;20035;-80
2023/09/01 08:53:53;;;;;;;4.57;2.08;;;;;;;;;;5088872;28;20479;-80
2023/09/01 08:56:19;;;;;;;13.13;2.20;;;;;;;;;;5091265;28;20032;-81
2023/09/01 08:58:46;;;;;;;4.00;1.92;;;;;;;;;;5090666;28;20035;-80
2023/09/01 09:01:13;;;;;;;7.97;2.20;;;;;;;;;;5090574;28;20036;-81
2023/09/01 09:03:39;;;;;;;8.32;2.15;;;;;;;;;;5088921;28;20121;-80
2023/09/01 09:06:05;;;;;;;6.43;1.80;;;;;;;;;;5072643;28;20044;-80
2023/09/01 09:08:30;;;;;;;6.90;2.28;;;;;;;;;;5089441;28;20032;-80
2023/09/01 09:10:56;;;;;;;6.40;2.20;;;;;;;;;;5091498;28;20051;-80
2023/09/01 09:13:22;;;;;;;7.03;2.00;;;;;;;;;;5094498;28;20036;-80
2023/09/01 09:16:08;;;;;;;3.45;1.90;;;;;;;;;;5076539;28;20081;-80
2023/09/01 09:18:33;;;;;;;4.85;1.92;;;;;;;;;;5089318;28;20044;-81
2023/09/01 09:20:59;;;;;;;6.93;1.90;;;;;;;;;;5087166;28;20105;-81
2023/09/01 09:23:43;;;;;;;6.32;1.85;;;;;;;;;;5076071;28;20028;-80
2023/09/01 09:26:09;;;;;;;7.55;2.20;;;;;;;;;;5073129;28;20041;-80
2023/09/01 09:28:35;;;;;;;6.82;1.88;;;;;;;;;;5092500;28;20043;-81
2023/09/01 09:31:00;;;;;;;5.82;1.95;;;;;;;;;;5092516;28;20031;-80
2023/09/01 09:33:29;;;;;;;3.53;1.75;;;;;;;;;;5092638;28;20036;-80
2023/09/01 09:35:55;;;;;;;6.43;1.77;;;;;;;;;;5091090;28;20376;-80
2023/09/01 09:38:21;;;;;;;6.75;2.13;;;;;;;;;;5075581;28;20032;-80
2023/09/01 09:40:56;;;;;;;3.90;1.75;;;;;;;;;;5092299;28;20544;-80
2023/09/01 09:43:22;;;;;;;4.75;1.88;;;;;;;;;;5072491;28;20115;-80
2023/09/01 09:45:48;;;;;;;4.80;1.90;;;;;;;;;;5092963;28;20509;-80
2023/09/01 09:48:13;;;;;;;4.90;1.77;;;;;;;;;;5094015;28;20066;-81
2023/09/01 09:50:38;;;;;;;3.55;1.60;;;;;;;;;;5092451;28;20020;-80
2023/09/01 09:53:04;;;;;;;3.85;2.05;;;;;;;;;;5093956;28;20468;-80
2023/09/01 09:55:30;;;;;;;10.63;2.42;;;;;;;;;;5094702;28;20028;-81
2023/09/01 09:58:06;;;;;;;18.33;1.73;;;;;;;;;;5088848;28;20028;-80
2023/09/01 10:00:32;;;;;;;;;;;;;;;;;;5090813;28;20048;-80
2023/09/01 10:03:09;;;;;;;5.55;1.80;;;;;;;;;;5093839;28;19911;-80
2023/09/01 10:05:35;;;;;;;4.82;1.80;;;;;;;;;;5091872;28;20028;-80
2023/09/01 10:08:01;;;;;;;9.05;1.98;;;;;;;;;;5094428;28;20027;-80
2023/09/01 10:10:26;;;;;;;2.35;1.58;;;;;;;;;;5091885;28;20038;-80
2023/09/01 10:12:52;;;;;;;7.78;1.80;;;;;;;;;;5093389;28;20084;-80
2023/09/01 10:15:17;;;;;;;6.20;1.80;;;;;;;;;;5075493;28;20040;-81
2023/09/01 10:17:43;;;;;;;5.70;1.90;;;;;;;;;;5093268;28;20123;-81
2023/09/01 10:20:09;;;;;;;8.10;2.22;;;;;;;;;;5092095;28;20055;-81
2023/09/01 10:22:40;;;;;;;4.68;1.77;;;;;;;;;;5092015;28;20028;-80
2023/09/01 10:25:16;;;;;;;6.13;1.83;;;;;;;;;;5091867;28;20631;-80
2023/09/01 10:28:12;;;;;;;5.30;1.70;;;;;;;;;;5071597;28;20033;-81
2023/09/01 10:30:38;;;;;;;4.15;1.80;;;;;;;;;;5073215;28;20051;-81
2023/09/01 10:33:10;;;;;;;3.70;1.63;;;;;;;;;;5091426;28;20084;-81
2023/09/01 10:35:39;;;;;;;7.00;1.90;;;;;;;;;;5087716;28;20040;-81
2023/09/01 10:38:28;;;;;;;5.93;1.98;;;;;;;;;;5074840;28;20459;-81
2023/09/01 10:40:54;;;;;;;11.65;2.20;;;;;;;;;;5072821;28;20456;-81
2023/09/01 10:43:35;;;;;;;5.03;1.88;;;;;;;;;;5090280;28;20039;-81
2023/09/01 10:46:13;;;;;;;5.00;1.95;;;;;;;;;;5086493;28;20024;-81
2023/09/01 10:48:46;;;;;;;4.95;1.92;;;;;;;;;;5087769;28;20032;-81
2023/09/01 10:51:16;;;;;;;3.65;1.90;;;;;;;;;;5091073;28;20028;-81
2023/09/01 10:53:41;;;;;;;3.35;1.50;;;;;;;;;;5091506;28;20028;-80
2023/09/01 10:56:07;;;;;;;3.42;1.52;;;;;;;;;;5091044;28;20043;-81
2023/09/01 10:58:36;;;;;;;2.85;1.50;;;;;;;;;;5091977;28;20016;-80
2023/09/01 11:01:21;;;;;;;5.32;1.70;;;;;;;;;;5091472;28;20043;-80
2023/09/01 11:03:46;;;;;;;3.42;1.70;;;;;;;;;;5089045;28;20026;-80
2023/09/01 11:06:12;;;;;;;8.05;2.00;;;;;;;;;;5091930;28;20099;-80
2023/09/01 11:08:37;;;;;;;3.85;1.80;;;;;;;;;;5091204;28;20035;-80
2023/09/01 11:11:06;;;;;;;5.55;2.20;;;;;;;;;;5090033;28;20497;-80
2023/09/01 11:13:32;;;;;;;8.40;2.40;;;;;;;;;;5090854;28;20135;-80
2023/09/01 11:15:57;;;;;;;6.60;2.22;;;;;;;;;;5091753;28;20115;-81
2023/09/01 11:18:23;;;;;;;11.35;2.55;;;;;;;;;;5073645;28;20040;-81
2023/09/01 11:20:55;;;;;;;9.75;2.90;;;;;;;;;;5090257;28;20031;-81
2023/09/01 11:23:21;;;;;;;5.32;3.20;;;;;;;;;;5090253;28;20043;-81
2023/09/01 11:25:47;;;;;;;6.57;2.50;;;;;;;;;;5090663;28;20158;-81
2023/09/01 11:28:13;;;;;;;6.18;2.55;;;;;;;;;;5091581;28;20035;-80
2023/09/01 11:30:50;;;;;;;7.10;2.25;;;;;;;;;;5072881;28;20123;-81
2023/09/01 11:33:42;;;;;;;6.35;2.15;;;;;;;;;;5091541;28;20039;-80
2023/09/01 11:36:10;;;;;;;3.50;2.10;;;;;;;;;;5081903;28;20127;-80
2023/09/01 11:38:35;;;;;;;4.57;2.05;;;;;;;;;;5091318;28;20028;-81
2023/09/01 11:41:01;;;;;;;6.72;2.65;;;;;;;;;;5090693;28;20347;-81
2023/09/01 11:43:27;;;;;;;4.55;2.55;;;;;;;;;;5091281;28;20058;-81
2023/09/01 11:45:52;;;;;;;6.65;3.15;;;;;;;;;;5091629;28;20028;-81
2023/09/01 11:48:23;;;;;;;5.55;3.28;;;;;;;;;;5091294;28;20058;-81
2023/09/01 11:50:48;;;;;;;7.32;2.50;;;;;;;;;;5088576;28;20027;-79
2023/09/01 11:53:27;;;;;;;7.85;2.13;;;;;;;;;;5089475;28;20402;-79
2023/09/01 11:55:57;;;;;;;6.43;2.10;;;;;;;;;;5091282;28;20610;-81
2023/09/01 11:58:22;;;;;;;4.22;2.08;;;;;;;;;;5072912;28;20402;-81
2023/09/01 12:00:49;;;;;;;3.38;2.08;;;;;;;;;;5091049;28;20047;-80
2023/09/01 12:03:19;;;;;;;6.20;2.10;;;;;;;;;;5088868;28;20024;-81
2023/09/01 12:05:45;;;;;;;5.72;2.20;;;;;;;;;;5089778;28;20111;-80
2023/09/01 12:08:10;;;;;;;4.20;2.15;;;;;;;;;;5090530;28;20111;-81
2023/09/01 12:10:36;;;;;;;5.07;2.20;;;;;;;;;;5078999;28;20043;-81
2023/09/01 12:13:04;;;;;;;4.75;2.30;;;;;;;;;;5089216;28;20023;-81
2023/09/01 12:15:30;;;;;;;6.55;2.20;;;;;;;;;;5090686;28;20047;-81
2023/09/01 12:17:55;;;;;;;6.05;2.13;;;;;;;;;;5089525;28;20031;-80
2023/09/01 12:20:21;;;;;;;6.10;2.20;;;;;;;;;;5091245;28;20046;-80
2023/09/01 12:22:47;;;;;;;8.18;1.95;;;;;;;;;;5089189;28;20024;-80
2023/09/01 12:25:14;;;;;;;4.53;2.00;;;;;;;;;;5090825;28;20454;-80
2023/09/01 12:27:39;;;;;;;5.45;2.05;;;;;;;;;;5073296;28;20057;-80
2023/09/01 12:30:05;;;;;;;3.30;2.00;;;;;;;;;;5090702;28;20040;-80
2023/09/01 12:32:31;;;;;;;8.10;2.55;;;;;;;;;;5090615;28;20024;-80
2023/09/01 12:34:56;;;;;;;4.35;2.17;;;;;;;;;;5090401;28;20035;-80
2023/09/01 12:37:22;;;;;;;3.63;1.85;;;;;;;;;;5090365;28;20047;-80
2023/09/01 12:39:47;;;;;;;6.15;1.90;;;;;;;;;;5072823;28;20062;-80
2023/09/01 12:42:13;;;;;;;5.15;1.90;;;;;;;;;;5090016;28;20459;-80
2023/09/01 12:44:38;;;;;;;6.35;2.05;;;;;;;;;;5090682;28;20020;-80
2023/09/01 12:47:05;;;;;;;5.40;1.83;;;;;;;;;;5088860;28;20027;-81
2023/09/01 12:49:30;;;;;;;5.00;2.10;;;;;;;;;;5088992;28;20036;-80
2023/09/01 12:51:56;;;;;;;4.43;1.77;;;;;;;;;;5090411;28;20073;-79
2023/09/01 12:54:21;;;;;;;5.43;2.13;;;;;;;;;;5090458;28;20028;-81
2023/09/01 12:56:47;;;;;;;6.82;2.20;;;;;;;;;;5088826;28;20491;-80
2023/09/01 12:59:12;;;;;;;5.40;2.20;;;;;;;;;;5089043;28;20032;-81
2023/09/01 13:01:38;;;;;;;5.35;1.80;;;;;;;;;;5089914;28;20082;-81
2023/09/01 13:04:03;;;;;;;6.40;2.42;;;;;;;;;;5090611;28;20488;-81
2023/09/01 13:06:29;;;;;;;3.75;2.08;;;;;;;;;;5088779;28;20047;-80
2023/09/01 13:08:54;;;;;;;7.25;2.10;;;;;;;;;;5088914;28;20036;-80
2023/09/01 13:11:20;;;;;;;3.63;1.65;;;;;;;;;;5089623;28;20024;-80
2023/09/01 13:13:45;;;;;;;6.03;1.90;;;;;;;;;;5090298;28;20078;-80
2023/09/01 13:16:11;;;;;;;6.57;2.10;;;;;;;;;;5089717;28;20486;-80
2023/09/01 13:18:38;;;;;;;5.68;1.83;;;;;;;;;;5090228;28;20087;-80
2023/09/01 13:21:04;;;;;;;3.45;1.90;;;;;;;;;;5087442;28;20020;-80
2023/09/01 13:23:29;;;;;;;4.43;2.15;;;;;;;;;;5089601;28;20518;-80
2023/09/01 13:25:55;;;;;;;4.30;1.98;;;;;;;;;;5090398;28;20535;-80
2023/09/01 13:28:21;;;;;;;6.53;1.90;;;;;;;;;;5090055;28;20395;-80
2023/09/01 13:30:46;;;;;;;3.75;1.92;;;;;;;;;;5089848;28;20150;-80
2023/09/01 13:33:13;;;;;;;7.45;1.92;;;;;;;;;;5089698;28;20023;-80
2023/09/01 13:35:39;;;;;;;4.10;2.00;;;;;;;;;;5088673;28;20028;-81
2023/09/01 13:38:05;;;;;;;6.30;1.98;;;;;;;;;;5088893;28;20032;-81
2023/09/01 13:40:30;;;;;;;4.57;1.90;;;;;;;;;;5090475;28;20032;-80
2023/09/01 13:42:55;;;;;;;5.20;1.80;;;;;;;;;;5090175;28;20109;-80
2023/09/01 13:45:21;;;;;;;4.45;1.95;;;;;;;;;;5089407;28;20030;-80
2023/09/01 13:47:46;;;;;;;4.82;1.90;;;;;;;;;;5089866;28;20035;-80
2023/09/01 13:50:12;;;;;;;4.57;1.92;;;;;;;;;;5089350;28;20020;-80
2023/09/01 13:52:37;;;;;;;3.67;1.95;;;;;;;;;;5089828;28;20040;-80
2023/09/01 13:55:03;;;;;;;6.80;1.90;;;;;;;;;;5089511;28;20077;-80
2023/09/01 13:57:28;;;;;;;6.97;2.00;;;;;;;;;;5079335;28;20527;-80
2023/09/01 13:59:54;;;;;;;3.85;2.00;;;;;;;;;;5091933;28;20047;-80
2023/09/01 14:02:19;;;;;;;6.85;2.47;;;;;;;;;;5093671;28;20081;-79
2023/09/01 14:04:45;;;;;;;7.97;2.00;;;;;;;;;;5092659;28;20024;-79
2023/09/01 14:07:10;;;;;;;6.90;2.20;;;;;;;;;;5093211;28;20077;-80
2023/09/01 14:09:36;;;;;;;5.18;2.20;;;;;;;;;;5093544;28;20020;-80
2023/09/01 14:12:02;;;;;;;4.68;2.10;;;;;;;;;;5092034;28;20450;-80
2023/09/01 14:14:27;;;;;;;8.95;2.00;;;;;;;;;;5091771;28;20035;-80
2023/09/01 14:16:53;;;;;;;5.18;2.13;;;;;;;;;;5091719;28;20043;-80
2023/09/01 14:19:18;;;;;;;4.38;2.03;;;;;;;;;;5091976;28;20039;-80
2023/09/01 14:21:44;;;;;;;3.95;1.98;;;;;;;;;;5093052;28;20048;-80
2023/09/01 14:24:09;;;;;;;8.88;1.90;;;;;;;;;;5092644;28;20020;-80
2023/09/01 14:26:35;;;;;;;6.72;1.90;;;;;;;;;;5092070;28;20155;-80
2023/09/01 14:29:00;;;;;;;4.25;1.95;;;;;;;;;;5091360;28;20516;-80
2023/09/01 14:31:26;;;;;;;6.65;2.40;;;;;;;;;;5092479;28;20122;-80
2023/09/01 14:33:51;;;;;;;8.43;2.33;;;;;;;;;;5091877;28;20066;-80
2023/09/01 14:36:17;;;;;;;5.30;2.33;;;;;;;;;;5091540;28;20063;-80
2023/09/01 14:38:42;;;;;;;9.32;2.20;;;;;;;;;;5092467;28;20027;-80